KFBG/FBG METAR and TAF weather

Enter ICAO airport designator
Station Type Date Time Source
KFBG METAR 2019/08/25 02:14 UTC NOAA

KFBG 250214Z AUTO 02006KT 10SM BKN021 18/18 A3014 RMK AO2 SLP208 $


Station Type Date Time Source
KFBG Decoded METAR 2019/08/25 02:14 UTC NOAA

Station name not available
Aug 24, 2019 - 10:14 PM EDT / 2019.08.25 0214 UTC
Wind: from the NNE (020 degrees) at 7 MPH (6 KT):0
Visibility: 10 mile(s):0
Sky conditions: mostly cloudy
Temperature: 64 F (18 C)
Dew Point: 64 F (18 C)
Relative Humidity: 100%
Pressure (altimeter): 30.14 in. Hg (1020 hPa)
ob: KFBG 250214Z AUTO 02006KT 10SM BKN021 18/18 A3014 RMK AO2 SLP208
cycle: 2

Station Type Date Time Source
KFBG TAF 2019/08/25 01:03 UTC NOAA

TAF KFBG 250100Z 2501/2607 04009KT 9000 VCSH BKN007 BKN025 QNH2996INS
BECMG 2503/2504 07006KT 9999 NSW BKN015 OVC250 QNH2997INS
BECMG 2512/2513 06006KT 9999 SCT030 BKN250 QNH3000INS
BECMG 2519/2520 04012KT 9999 SCT050 SCT250 QNH3007INS TX27/2518Z TN18/2501Z

Example: see airport list